Aviation Digital Data Service (ADDS)

Output produced by METARs form (1734 UTC 21 September 2019)
found at http://aviationweather.gov/metar/data/
 
KLFT 211140Z 2112/2212 VRB04KT P6SM SKC 
     FM211500 11008KT P6SM SCT030 
     FM211800 12008KT P6SM VCSH SCT050 
     PROB30 2121/2124 3SM -TSRA BKN025CB 
     FM220200 VRB03KT P6SM SCT250